Houche-Al-Oumara, Lebanon
Current Conditions -  °F | °C
As of 2:00 PM on Saturday 25 Oct 2014 (Local Time) from OLBA Reporting Station
Few Clouds Few Clouds  
Wind Chill: 82°   Ceiling: Unl
Heat Index: 82°   Visibility: 4mi
Dew Point: 57°   Wind: 2mph
Humidity: 42%   Direction: NA
Pressure: 29.97"   Gusts: NA
Location:  33.82°N, 35.85°E
Report Text: OLBA 251100Z VRB02KT 7000 FEW026 28/14 Q1015
Loading
Personal Weather Stations






























Interactive Weather Map
Tropical Storm Tracking
New forecast layout! Learn more

10-Day Weather Forecast

Advertisements
Track Severe Weather on mobile